Time;durP1;ratioP1;P1;durP2;ratioP2;P2;SDS_P1;SDS_P2;PMS_P1;PMS_P2;Temp;Humidity;BMP_temperature;BMP_pressure;BME280_temperature;BME280_humidity;BME280_pressure;Samples;Min_cycle;Max_cycle;Signal;HPM_P1;HPM_P2
2022/07/13 00:00:18;;;;;;;;;;;21.40;83.50;;;;;;1996834;28;19905;-70
2022/07/13 00:01:17;;;;;;;;;;;21.40;83.80;;;;;;1997128;28;19901;-70
2022/07/13 00:02:15;;;;;;;;;;;21.40;84.80;;;;;;1996963;28;19949;-70
2022/07/13 00:03:14;;;;;;;;;;;21.40;83.50;;;;;;1996811;28;19912;-70
2022/07/13 00:04:12;;;;;;;;;;;21.40;83.50;;;;;;1996969;28;19948;-69
2022/07/13 00:05:11;;;;;;;;;;;21.40;82.60;;;;;;1996974;28;19996;-69
2022/07/13 00:06:09;;;;;;;;;;;21.40;82.40;;;;;;1997035;28;19917;-69
2022/07/13 00:07:08;;;;;;;;;;;21.40;83.80;;;;;;1997006;28;20000;-69
2022/07/13 00:08:06;;;;;;;;;;;21.40;83.80;;;;;;1996880;28;19906;-69
2022/07/13 00:09:05;;;;;;;;;;;21.40;84.50;;;;;;1997000;28;19905;-69
2022/07/13 00:10:04;;;;;;;;;;;21.40;84.60;;;;;;1997184;28;19906;-69
2022/07/13 00:11:02;;;;;;;;;;;21.40;85.10;;;;;;1998261;28;19953;-69
2022/07/13 00:12:01;;;;;;;;;;;21.40;85.80;;;;;;1998264;28;19964;-70
2022/07/13 00:12:59;;;;;;;;;;;21.40;85.50;;;;;;1998488;28;19992;-69
2022/07/13 00:13:58;;;;;;;;;;;21.40;82.40;;;;;;1998341;28;19906;-69
2022/07/13 00:14:56;;;;;;;;;;;21.50;84.80;;;;;;1998447;28;19906;-69
2022/07/13 00:15:55;;;;;;;;;;;21.50;84.20;;;;;;1998328;28;19971;-70
2022/07/13 00:16:53;;;;;;;;;;;21.40;81.60;;;;;;1998521;28;19905;-69
2022/07/13 00:17:52;;;;;;;;;;;21.40;81.50;;;;;;1998460;28;19913;-69
2022/07/13 00:18:50;;;;;;;;;;;21.30;82.30;;;;;;1998328;28;19960;-69
2022/07/13 00:19:49;;;;;;;;;;;21.40;83.80;;;;;;1998441;28;19960;-70
2022/07/13 00:20:48;;;;;;;;;;;21.40;86.90;;;;;;1998187;28;20356;-69
2022/07/13 00:21:46;;;;;;;;;;;21.50;81.90;;;;;;1998297;28;19948;-69
2022/07/13 00:22:45;;;;;;;;;;;21.40;80.00;;;;;;1998296;28;19913;-70
2022/07/13 00:23:43;;;;;;;;;;;21.30;80.20;;;;;;1998320;28;20414;-69
2022/07/13 00:24:42;;;;;;;;;;;21.50;81.70;;;;;;1998409;28;19960;-69
2022/07/13 00:25:40;;;;;;;;;;;21.50;83.80;;;;;;1998301;28;19905;-70
2022/07/13 00:26:39;;;;;;;;;;;21.40;84.30;;;;;;1998253;28;20145;-69
2022/07/13 00:27:37;;;;;;;;;;;21.40;85.10;;;;;;1998258;28;19905;-69
2022/07/13 00:28:36;;;;;;;;;;;21.40;87.80;;;;;;1998311;28;19976;-69
2022/07/13 00:29:35;;;;;;;;;;;21.40;89.10;;;;;;1998241;28;19905;-69
2022/07/13 00:30:33;;;;;;;;;;;21.40;90.00;;;;;;1998265;28;19916;-69
2022/07/13 00:31:32;;;;;;;;;;;21.50;87.10;;;;;;1998287;28;19912;-69
2022/07/13 00:32:31;;;;;;;;;;;21.40;85.50;;;;;;1998200;28;19928;-69
2022/07/13 00:33:29;;;;;;;;;;;21.40;84.50;;;;;;1998215;28;19910;-69
2022/07/13 00:34:30;;;;;;;;;;;21.40;84.10;;;;;;1998358;28;19906;-69
2022/07/13 00:35:29;;;;;;;;;;;21.40;84.30;;;;;;1998269;28;19905;-69
2022/07/13 00:36:27;;;;;;;;;;;21.40;84.20;;;;;;1998275;28;19906;-70
2022/07/13 00:37:26;;;;;;;;;;;21.40;84.80;;;;;;1998168;28;19905;-69
2022/07/13 00:38:24;;;;;;;;;;;21.40;85.60;;;;;;1998195;28;19949;-70
2022/07/13 00:39:23;;;;;;;;;;;21.40;86.40;;;;;;1998231;28;19905;-69
2022/07/13 00:40:21;;;;;;;;;;;21.50;87.00;;;;;;1998135;28;19905;-70
2022/07/13 00:41:20;;;;;;;;;;;21.50;88.40;;;;;;1998149;28;19909;-70
2022/07/13 00:42:18;;;;;;;;;;;21.40;90.40;;;;;;1998261;28;20044;-70
2022/07/13 00:43:17;;;;;;;;;;;21.40;84.20;;;;;;1998220;28;19968;-69
2022/07/13 00:44:16;;;;;;;;;;;21.40;82.70;;;;;;1998136;28;19909;-70
2022/07/13 00:45:14;;;;;;;;;;;21.40;83.40;;;;;;1998099;28;19905;-70
2022/07/13 00:46:13;;;;;;;;;;;21.40;83.30;;;;;;1998121;28;19957;-70
2022/07/13 00:47:12;;;;;;;;;;;21.40;83.90;;;;;;1998262;28;19910;-69
2022/07/13 00:48:11;;;;;;;;;;;21.40;85.20;;;;;;1997376;28;19906;-70
2022/07/13 00:49:10;;;;;;;;;;;21.40;86.10;;;;;;1997726;28;19940;-70
2022/07/13 00:50:09;;;;;;;;;;;;;;;;;;1998281;28;19906;-70
2022/07/13 00:51:08;;;;;;;;;;;;;;;;;;1998011;28;20056;-70
2022/07/13 00:52:06;;;;;;;;;;;21.40;74.90;;;;;;1998110;28;19910;-70
2022/07/13 00:53:05;;;;;;;;;;;21.40;75.50;;;;;;1998128;28;20373;-70
2022/07/13 00:54:04;;;;;;;;;;;21.40;75.70;;;;;;1998134;28;19905;-70
2022/07/13 00:55:04;;;;;;;;;;;21.40;76.20;;;;;;1998181;28;20286;-70
2022/07/13 00:56:04;;;;;;;;;;;21.40;76.40;;;;;;1998021;28;19929;-70
2022/07/13 00:57:03;;;;;;;;;;;21.40;76.90;;;;;;1998020;28;20412;-70
2022/07/13 00:58:02;;;;;;;;;;;21.40;77.40;;;;;;1998151;28;19995;-70
2022/07/13 00:59:00;;;;;;;;;;;21.40;77.80;;;;;;1997459;28;19960;-70
2022/07/13 00:59:59;;;;;;;;;;;21.40;78.50;;;;;;1997495;28;19953;-70
2022/07/13 01:00:58;;;;;;;;;;;21.40;78.60;;;;;;1997792;28;19965;-70
2022/07/13 01:01:58;;;;;;;;;;;21.40;79.30;;;;;;1998035;28;19905;-70
2022/07/13 01:02:56;;;;;;;;;;;21.40;80.50;;;;;;1997984;28;19912;-69
2022/07/13 01:03:55;;;;;;;;;;;21.40;81.60;;;;;;1998018;28;19906;-70
2022/07/13 01:04:53;;;;;;;;;;;21.40;82.90;;;;;;1998011;28;19905;-69
2022/07/13 01:05:52;;;;;;;;;;;21.40;84.10;;;;;;1998027;28;19945;-68
2022/07/13 01:06:54;;;;;;;;;;;21.50;86.30;;;;;;1997269;28;19906;-69
2022/07/13 01:07:52;;;;;;;;;;;21.40;90.40;;;;;;1997474;28;20287;-69
2022/07/13 01:08:51;;;;;;;;;;;21.40;91.80;;;;;;1998016;28;19905;-69
2022/07/13 01:09:50;;;;;;;;;;;21.40;89.60;;;;;;1997439;28;19914;-69
2022/07/13 01:10:49;;;;;;;;;;;21.40;91.50;;;;;;1997317;28;19906;-69
2022/07/13 01:11:47;;;;;;;;;;;21.40;85.30;;;;;;1997869;28;19967;-69
2022/07/13 01:12:46;;;;;;;;;;;21.40;88.40;;;;;;1997917;28;20245;-70
2022/07/13 01:13:45;;;;;;;;;;;21.40;90.00;;;;;;1998053;28;19905;-69
2022/07/13 01:16:19;;;;;;;;;;;21.40;91.40;;;;;;1998141;28;19909;-69
2022/07/13 01:17:18;;;;;;;;;;;21.40;84.70;;;;;;1998048;28;19949;-69
2022/07/13 01:18:16;;;;;;;;;;;21.40;84.00;;;;;;1997974;28;20348;-68
2022/07/13 01:19:15;;;;;;;;;;;21.40;84.30;;;;;;1998043;28;19916;-69
2022/07/13 01:20:14;;;;;;;;;;;21.40;85.90;;;;;;1997949;28;19992;-69
2022/07/13 01:21:13;;;;;;;;;;;21.40;88.20;;;;;;1997603;28;19905;-69
2022/07/13 01:22:12;;;;;;;;;;;;;;;;;;1998178;28;20418;-69
2022/07/13 01:23:11;;;;;;;;;;;21.40;71.60;;;;;;1998991;28;19961;-70
2022/07/13 01:24:11;;;;;;;;;;;21.40;72.20;;;;;;2000886;28;19909;-68
2022/07/13 01:25:09;;;;;;;;;;;21.40;72.10;;;;;;2001403;28;19935;-69
2022/07/13 01:26:09;;;;;;;;;;;21.40;72.10;;;;;;2000868;28;19906;-68
2022/07/13 01:27:08;;;;;;;;;;;21.40;72.10;;;;;;1999882;28;19912;-69
2022/07/13 01:28:07;;;;;;;;;;;21.40;72.10;;;;;;1997889;28;20283;-68
2022/07/13 01:29:06;;;;;;;;;;;21.40;72.10;;;;;;1997814;28;19906;-68
2022/07/13 01:30:06;;;;;;;;;;;21.40;72.10;;;;;;1997820;28;20384;-68
2022/07/13 01:31:05;;;;;;;;;;;21.40;72.10;;;;;;1997769;28;19905;-69
2022/07/13 01:32:03;;;;;;;;;;;21.40;72.10;;;;;;1997714;28;19972;-69
2022/07/13 01:33:02;;;;;;;;;;;21.40;72.10;;;;;;1998018;28;19960;-69
2022/07/13 01:34:01;;;;;;;;;;;21.40;72.10;;;;;;1997749;28;19910;-68
2022/07/13 01:34:59;;;;;;;;;;;21.40;72.10;;;;;;1997747;28;20041;-69
2022/07/13 01:35:58;;;;;;;;;;;21.40;72.10;;;;;;1997856;28;19905;-70
2022/07/13 01:36:57;;;;;;;;;;;21.40;72.10;;;;;;1997845;28;19906;-68
2022/07/13 01:37:56;;;;;;;;;;;21.40;72.00;;;;;;1997752;28;19906;-69
2022/07/13 01:38:56;;;;;;;;;;;21.40;72.00;;;;;;1997782;28;19906;-69
2022/07/13 01:39:54;;;;;;;;;;;21.40;72.10;;;;;;1997667;28;19914;-69
2022/07/13 01:40:53;;;;;;;;;;;21.40;72.10;;;;;;1997736;28;19906;-69
2022/07/13 01:41:51;;;;;;;;;;;21.40;72.10;;;;;;1997748;28;20367;-69
2022/07/13 01:42:50;;;;;;;;;;;21.40;72.10;;;;;;1997676;28;19917;-69
2022/07/13 01:43:49;;;;;;;;;;;21.40;72.10;;;;;;1997745;28;19913;-69
2022/07/13 01:44:48;;;;;;;;;;;21.40;72.10;;;;;;1997683;28;19906;-69
2022/07/13 01:45:46;;;;;;;;;;;21.40;72.10;;;;;;1997738;28;19937;-70
2022/07/13 01:46:45;;;;;;;;;;;21.40;72.10;;;;;;1997800;28;19965;-69
2022/07/13 01:47:44;;;;;;;;;;;21.40;72.10;;;;;;1997791;28;19993;-69
2022/07/13 01:48:43;;;;;;;;;;;21.40;72.10;;;;;;1997653;28;19913;-68
2022/07/13 01:49:41;;;;;;;;;;;21.40;72.10;;;;;;1997711;28;19906;-69
2022/07/13 01:50:40;;;;;;;;;;;21.40;72.10;;;;;;1997556;28;19992;-70
2022/07/13 01:51:39;;;;;;;;;;;21.40;72.10;;;;;;1997694;28;19945;-68
2022/07/13 01:52:37;;;;;;;;;;;21.40;72.00;;;;;;1997661;28;20056;-68
2022/07/13 01:53:36;;;;;;;;;;;21.40;72.00;;;;;;1997608;28;19956;-70
2022/07/13 01:54:34;;;;;;;;;;;21.40;72.10;;;;;;1997847;28;19906;-69
2022/07/13 01:55:33;;;;;;;;;;;21.40;72.00;;;;;;1997713;28;20344;-69
2022/07/13 01:56:32;;;;;;;;;;;21.40;72.00;;;;;;1997598;28;19905;-68
2022/07/13 01:57:30;;;;;;;;;;;21.40;72.10;;;;;;1997645;28;19909;-69
2022/07/13 01:58:29;;;;;;;;;;;21.40;72.00;;;;;;1997600;28;19913;-69
2022/07/13 01:59:27;;;;;;;;;;;21.40;72.00;;;;;;1997570;28;19906;-69
2022/07/13 02:00:26;;;;;;;;;;;21.40;72.10;;;;;;1997342;28;19906;-69
2022/07/13 02:01:25;;;;;;;;;;;21.40;72.10;;;;;;1997721;28;19901;-69
2022/07/13 02:02:23;;;;;;;;;;;21.30;72.00;;;;;;1997484;28;20272;-70
2022/07/13 02:03:22;;;;;;;;;;;21.40;72.10;;;;;;1997607;28;19949;-70
2022/07/13 02:04:20;;;;;;;;;;;21.40;72.00;;;;;;1997807;28;19952;-69
2022/07/13 02:05:19;;;;;;;;;;;21.40;72.00;;;;;;1997777;28;20466;-70
2022/07/13 02:06:17;;;;;;;;;;;21.40;72.00;;;;;;1997541;28;19929;-69
2022/07/13 02:07:16;;;;;;;;;;;21.40;72.10;;;;;;1997595;28;20281;-70
2022/07/13 02:08:14;;;;;;;;;;;21.40;72.10;;;;;;1997499;28;19913;-69
2022/07/13 02:09:13;;;;;;;;;;;21.40;72.10;;;;;;1997571;28;19906;-70
2022/07/13 02:10:12;;;;;;;;;;;21.40;72.10;;;;;;1997499;28;19910;-70
2022/07/13 02:11:17;;;;;;;;;;;21.40;72.00;;;;;;1997477;28;20000;-70
2022/07/13 02:12:16;;;;;;;;;;;21.40;72.10;;;;;;1997433;28;19910;-70
2022/07/13 02:13:15;;;;;;;;;;;21.40;72.00;;;;;;1997463;28;19975;-70
2022/07/13 02:14:13;;;;;;;;;;;21.40;72.10;;;;;;1997484;28;19906;-70
2022/07/13 02:15:12;;;;;;;;;;;21.40;72.10;;;;;;1997505;28;19948;-70
2022/07/13 02:16:13;;;;;;;;;;;21.40;72.10;;;;;;1997447;28;20323;-69
2022/07/13 02:17:12;;;;;;;;;;;21.40;72.10;;;;;;1997499;28;19909;-69
2022/07/13 02:18:11;;;;;;;;;;;21.40;72.00;;;;;;1997373;28;19912;-69
2022/07/13 02:19:09;;;;;;;;;;;21.40;72.10;;;;;;1997524;28;19944;-70
2022/07/13 02:20:08;;;;;;;;;;;21.40;72.10;;;;;;1997378;28;19906;-69
2022/07/13 02:21:07;;;;;;;;;;;21.40;72.10;;;;;;1997316;28;19912;-68
2022/07/13 02:22:07;;;;;;;;;;;21.40;72.10;;;;;;1997655;28;19949;-69
2022/07/13 02:23:05;;;;;;;;;;;21.40;72.00;;;;;;1997433;28;20280;-69
2022/07/13 02:24:04;;;;;;;;;;;21.40;72.10;;;;;;1997482;28;19998;-69
2022/07/13 02:25:03;;;;;;;;;;;21.40;72.10;;;;;;1997380;28;19912;-68
2022/07/13 02:26:01;;;;;;;;;;;21.40;72.00;;;;;;1997315;28;19905;-69
2022/07/13 02:27:00;;;;;;;;;;;21.40;72.10;;;;;;1997378;28;19932;-69
2022/07/13 02:27:58;;;;;;;;;;;21.40;72.00;;;;;;1997380;28;19913;-69
2022/07/13 02:28:57;;;;;;;;;;;21.40;72.00;;;;;;1997387;28;19906;-69
2022/07/13 02:29:55;;;;;;;;;;;21.40;72.10;;;;;;1997378;28;19913;-69
2022/07/13 02:30:54;;;;;;;;;;;21.40;72.10;;;;;;1997272;28;19905;-69
2022/07/13 02:31:52;;;;;;;;;;;21.40;72.10;;;;;;1997437;28;19980;-69
2022/07/13 02:32:51;;;;;;;;;;;21.30;72.00;;;;;;1996636;28;19913;-69
2022/07/13 02:33:49;;;;;;;;;;;21.40;72.10;;;;;;1997315;28;19910;-69
2022/07/13 02:34:48;;;;;;;;;;;21.40;72.00;;;;;;1997389;28;19945;-69
2022/07/13 02:35:46;;;;;;;;;;;21.40;72.00;;;;;;1997367;28;19937;-70
2022/07/13 02:36:45;;;;;;;;;;;21.40;72.00;;;;;;1997333;28;20384;-69
2022/07/13 02:37:43;;;;;;;;;;;21.40;72.10;;;;;;1997319;28;19937;-69
2022/07/13 02:38:42;;;;;;;;;;;21.40;72.10;;;;;;1997240;28;19945;-70
2022/07/13 02:39:40;;;;;;;;;;;21.40;72.10;;;;;;1997252;28;19905;-69
2022/07/13 02:40:39;;;;;;;;;;;21.40;72.00;;;;;;1997255;28;19913;-69
2022/07/13 02:41:37;;;;;;;;;;;21.40;72.00;;;;;;1997277;28;19912;-70
2022/07/13 02:42:36;;;;;;;;;;;21.40;72.00;;;;;;1997295;28;19906;-70
2022/07/13 02:43:34;;;;;;;;;;;21.40;72.00;;;;;;1997310;28;19949;-70
2022/07/13 02:44:33;;;;;;;;;;;21.40;72.00;;;;;;1997321;28;20307;-70
2022/07/13 02:45:31;;;;;;;;;;;21.40;72.10;;;;;;1997277;28;19912;-70
2022/07/13 02:46:30;;;;;;;;;;;21.40;72.00;;;;;;1997377;28;19913;-70
2022/07/13 02:47:28;;;;;;;;;;;21.40;72.00;;;;;;1997364;28;19906;-70
2022/07/13 02:48:27;;;;;;;;;;;21.40;72.00;;;;;;1997228;28;19906;-69
2022/07/13 02:49:25;;;;;;;;;;;21.40;72.00;;;;;;1997246;28;19968;-70
2022/07/13 02:50:24;;;;;;;;;;;21.40;72.00;;;;;;1997353;28;19906;-69
2022/07/13 02:51:22;;;;;;;;;;;21.40;72.00;;;;;;1997348;28;20311;-69
2022/07/13 02:52:21;;;;;;;;;;;21.40;72.00;;;;;;1997277;28;20045;-69
2022/07/13 02:53:19;;;;;;;;;;;21.40;72.00;;;;;;1997143;28;20267;-68
2022/07/13 02:54:18;;;;;;;;;;;21.40;72.00;;;;;;1997318;28;20353;-69
2022/07/13 02:55:16;;;;;;;;;;;21.40;72.00;;;;;;1997319;28;19913;-69
2022/07/13 02:56:15;;;;;;;;;;;21.40;72.00;;;;;;1997177;28;20292;-69
2022/07/13 02:57:13;;;;;;;;;;;21.40;72.00;;;;;;1997166;28;19953;-69
2022/07/13 02:58:11;;;;;;;;;;;21.40;72.00;;;;;;1997162;28;19984;-70
2022/07/13 02:59:10;;;;;;;;;;;21.40;71.90;;;;;;1997385;28;19964;-68
2022/07/13 03:00:09;;;;;;;;;;;21.40;71.90;;;;;;1997095;28;19906;-69
2022/07/13 03:01:08;;;;;;;;;;;21.40;71.90;;;;;;1997270;28;19948;-69
2022/07/13 03:02:06;;;;;;;;;;;21.40;72.00;;;;;;1997107;28;19905;-70
2022/07/13 03:03:05;;;;;;;;;;;21.40;71.90;;;;;;1997136;28;19943;-70
2022/07/13 03:04:03;;;;;;;;;;;21.40;72.00;;;;;;1997210;28;19905;-70
2022/07/13 03:05:02;;;;;;;;;;;21.30;71.80;;;;;;1997122;28;19960;-70
2022/07/13 03:06:01;;;;;;;;;;;21.40;72.00;;;;;;1997229;28;20004;-70
2022/07/13 03:07:00;;;;;;;;;;;21.40;71.90;;;;;;1997214;28;19972;-70
2022/07/13 03:07:58;;;;;;;;;;;21.40;71.90;;;;;;1997064;28;19910;-70
2022/07/13 03:08:57;;;;;;;;;;;21.40;71.90;;;;;;1997163;28;20000;-70
2022/07/13 03:09:56;;;;;;;;;;;21.40;71.90;;;;;;1997307;28;20051;-70
2022/07/13 03:10:55;;;;;;;;;;;21.40;71.90;;;;;;1997130;28;19997;-70
2022/07/13 03:11:54;;;;;;;;;;;21.40;71.90;;;;;;1996346;28;20299;-70
2022/07/13 03:12:52;;;;;;;;;;;21.40;72.00;;;;;;1996775;28;19906;-70
2022/07/13 03:13:50;;;;;;;;;;;21.40;71.90;;;;;;1997110;28;20272;-71
2022/07/13 03:14:49;;;;;;;;;;;21.30;71.90;;;;;;1997122;28;19910;-68
2022/07/13 03:15:47;;;;;;;;;;;21.40;72.00;;;;;;1997129;28;19934;-69
2022/07/13 03:16:46;;;;;;;;;;;21.30;71.90;;;;;;1997121;28;19972;-69
2022/07/13 03:17:44;;;;;;;;;;;21.40;72.00;;;;;;1997156;28;20363;-70
2022/07/13 03:18:43;;;;;;;;;;;21.30;71.90;;;;;;1997121;28;19985;-70
2022/07/13 03:19:41;;;;;;;;;;;21.40;72.00;;;;;;1997138;28;19992;-69
2022/07/13 03:20:40;;;;;;;;;;;21.40;71.90;;;;;;1997358;28;20300;-69
2022/07/13 03:21:38;;;;;;;;;;;21.40;72.00;;;;;;1997172;28;19992;-69
2022/07/13 03:22:37;;;;;;;;;;;21.40;71.90;;;;;;1997056;28;19913;-69
2022/07/13 03:23:35;;;;;;;;;;;21.40;71.90;;;;;;1997036;28;20055;-69
2022/07/13 03:24:34;;;;;;;;;;;21.40;71.90;;;;;;1997100;28;19959;-69
2022/07/13 03:25:33;;;;;;;;;;;21.40;71.90;;;;;;1997124;28;19929;-69
2022/07/13 03:26:31;;;;;;;;;;;21.40;71.90;;;;;;1996974;28;20444;-69
2022/07/13 03:27:29;;;;;;;;;;;21.40;71.80;;;;;;1997038;28;19909;-69
2022/07/13 03:28:28;;;;;;;;;;;21.40;71.90;;;;;;1996947;28;20268;-69
2022/07/13 03:29:26;;;;;;;;;;;21.40;72.00;;;;;;1997037;28;19906;-69
2022/07/13 03:30:25;;;;;;;;;;;21.40;71.90;;;;;;1996968;28;19906;-68
2022/07/13 03:31:24;;;;;;;;;;;21.40;71.90;;;;;;1997018;28;19906;-69
2022/07/13 03:32:23;;;;;;;;;;;21.40;71.80;;;;;;1997038;28;19949;-69
2022/07/13 03:33:21;;;;;;;;;;;21.40;71.90;;;;;;1997098;28;19925;-69
2022/07/13 03:34:19;;;;;;;;;;;21.40;71.80;;;;;;1997030;28;19964;-69
2022/07/13 03:35:18;;;;;;;;;;;21.40;71.90;;;;;;1997058;28;19913;-70
2022/07/13 03:36:16;;;;;;;;;;;21.40;71.90;;;;;;1997061;28;19913;-70
2022/07/13 03:37:15;;;;;;;;;;;21.40;71.80;;;;;;1997136;28;20016;-69
2022/07/13 03:38:14;;;;;;;;;;;21.30;71.70;;;;;;1997000;28;20336;-69
2022/07/13 03:39:12;;;;;;;;;;;21.40;71.80;;;;;;1997098;28;19910;-69
2022/07/13 03:40:11;;;;;;;;;;;21.40;71.90;;;;;;1997096;28;19944;-69
2022/07/13 03:41:09;;;;;;;;;;;21.30;71.70;;;;;;1996947;28;19911;-69
2022/07/13 03:42:08;;;;;;;;;;;21.30;71.70;;;;;;1997029;28;19906;-70
2022/07/13 03:43:06;;;;;;;;;;;21.30;71.70;;;;;;1997111;28;20000;-69
2022/07/13 03:44:05;;;;;;;;;;;21.40;71.80;;;;;;1997314;28;20016;-69
2022/07/13 03:45:04;;;;;;;;;;;21.40;71.80;;;;;;1998585;28;20424;-69
2022/07/13 03:46:02;;;;;;;;;;;21.40;71.80;;;;;;1998700;28;20348;-69
2022/07/13 03:47:00;;;;;;;;;;;21.40;71.80;;;;;;1998653;28;19906;-69
2022/07/13 03:47:59;;;;;;;;;;;21.40;71.80;;;;;;1998666;28;19909;-68
2022/07/13 03:48:57;;;;;;;;;;;21.40;71.80;;;;;;1998664;28;19956;-69
2022/07/13 03:49:56;;;;;;;;;;;21.30;71.70;;;;;;1998535;28;19906;-69
2022/07/13 03:50:54;;;;;;;;;;;21.40;71.80;;;;;;1998462;28;19913;-69
2022/07/13 03:51:53;;;;;;;;;;;21.40;71.80;;;;;;1998534;28;19972;-68
2022/07/13 03:52:51;;;;;;;;;;;21.40;71.70;;;;;;1998598;28;19941;-68
2022/07/13 03:53:50;;;;;;;;;;;21.40;71.70;;;;;;1998595;28;20176;-68
2022/07/13 03:54:48;;;;;;;;;;;21.30;71.60;;;;;;1998624;28;19905;-68
2022/07/13 03:55:47;;;;;;;;;;;21.40;71.70;;;;;;1998537;28;19932;-68
2022/07/13 03:56:46;;;;;;;;;;;21.40;71.70;;;;;;1998575;28;19906;-68
2022/07/13 03:57:45;;;;;;;;;;;21.40;71.70;;;;;;1998558;28;19988;-68
2022/07/13 03:58:43;;;;;;;;;;;21.40;71.80;;;;;;1998522;28;19906;-69
2022/07/13 03:59:42;;;;;;;;;;;21.40;71.70;;;;;;1998531;28;19929;-69
2022/07/13 04:00:40;;;;;;;;;;;21.40;71.70;;;;;;1998315;28;19929;-69
2022/07/13 04:01:39;;;;;;;;;;;21.40;71.70;;;;;;1998479;28;19905;-70
2022/07/13 04:02:37;;;;;;;;;;;21.40;71.70;;;;;;1998529;28;19913;-69
2022/07/13 04:03:35;;;;;;;;;;;21.40;71.70;;;;;;1998504;28;20423;-69
2022/07/13 04:04:34;;;;;;;;;;;21.40;71.70;;;;;;1998641;28;19905;-69
2022/07/13 04:05:32;;;;;;;;;;;21.40;71.70;;;;;;1998649;28;19906;-70
2022/07/13 04:06:31;;;;;;;;;;;21.40;71.70;;;;;;1998454;28;19906;-70
2022/07/13 04:07:29;;;;;;;;;;;21.40;71.70;;;;;;1998405;28;20426;-69
2022/07/13 04:08:28;;;;;;;;;;;21.40;71.70;;;;;;1998417;28;19906;-71
2022/07/13 04:09:26;;;;;;;;;;;21.40;71.70;;;;;;1998453;28;19906;-69
2022/07/13 04:10:25;;;;;;;;;;;21.30;71.70;;;;;;1998434;28;19905;-70
2022/07/13 04:11:25;;;;;;;;;;;21.40;71.70;;;;;;1998379;28;19949;-69
2022/07/13 04:12:24;;;;;;;;;;;21.40;71.70;;;;;;1998375;28;20375;-70
2022/07/13 04:13:22;;;;;;;;;;;21.40;71.70;;;;;;1998361;28;20331;-70
2022/07/13 04:14:21;;;;;;;;;;;21.40;71.70;;;;;;1998397;28;19996;-71
2022/07/13 04:15:19;;;;;;;;;;;21.40;71.70;;;;;;1998576;28;20017;-69
2022/07/13 04:16:18;;;;;;;;;;;21.40;71.70;;;;;;1998393;28;19995;-69
2022/07/13 04:17:16;;;;;;;;;;;21.40;71.70;;;;;;1998374;28;20317;-68
2022/07/13 04:18:14;;;;;;;;;;;21.40;71.70;;;;;;1998447;28;19912;-69
2022/07/13 04:19:13;;;;;;;;;;;21.40;71.70;;;;;;1998352;28;19997;-69
2022/07/13 04:20:11;;;;;;;;;;;21.40;71.70;;;;;;1998313;28;20004;-69
2022/07/13 04:21:14;;;;;;;;;;;21.40;71.70;;;;;;1998289;28;19953;-69
2022/07/13 04:22:12;;;;;;;;;;;21.30;71.60;;;;;;1998488;28;19952;-70
2022/07/13 04:23:11;;;;;;;;;;;21.40;71.70;;;;;;1998490;28;20267;-69
2022/07/13 04:24:09;;;;;;;;;;;21.40;71.70;;;;;;1998361;28;20048;-69
2022/07/13 04:25:08;;;;;;;;;;;21.40;71.70;;;;;;1998357;28;19906;-69
2022/07/13 04:26:07;;;;;;;;;;;21.40;71.70;;;;;;1998223;28;19935;-69
2022/07/13 04:27:05;;;;;;;;;;;21.40;71.70;;;;;;1998437;28;19912;-68
2022/07/13 04:28:04;;;;;;;;;;;21.40;71.70;;;;;;1998255;28;19992;-69
2022/07/13 04:29:02;;;;;;;;;;;21.40;71.70;;;;;;1998520;28;20000;-70
2022/07/13 04:30:01;;;;;;;;;;;21.40;71.70;;;;;;1998387;28;19956;-69
2022/07/13 04:30:59;;;;;;;;;;;21.40;71.80;;;;;;1998196;28;19913;-69
2022/07/13 04:31:58;;;;;;;;;;;21.40;71.70;;;;;;1998151;28;19921;-69
2022/07/13 04:32:56;;;;;;;;;;;21.40;71.70;;;;;;1998343;28;19913;-69
2022/07/13 04:33:55;;;;;;;;;;;21.40;71.70;;;;;;1998239;28;19917;-69
2022/07/13 04:34:54;;;;;;;;;;;21.40;71.70;;;;;;1998250;28;20366;-69
2022/07/13 04:35:53;;;;;;;;;;;21.40;71.70;;;;;;1998453;28;19906;-70
2022/07/13 04:36:52;;;;;;;;;;;21.40;71.70;;;;;;1998240;28;19906;-70
2022/07/13 04:37:50;;;;;;;;;;;21.40;71.70;;;;;;1998260;28;20283;-69
2022/07/13 04:38:49;;;;;;;;;;;21.40;71.70;;;;;;1998227;28;20356;-70
2022/07/13 04:39:48;;;;;;;;;;;21.40;71.70;;;;;;1998166;28;20262;-71
2022/07/13 04:40:46;;;;;;;;;;;21.40;71.70;;;;;;1998079;28;19913;-69
2022/07/13 04:41:46;;;;;;;;;;;21.40;71.70;;;;;;1998189;28;19906;-69
2022/07/13 04:42:45;;;;;;;;;;;21.40;71.70;;;;;;1998411;28;19944;-70
2022/07/13 04:43:45;;;;;;;;;;;21.40;71.70;;;;;;1998159;28;19905;-68
2022/07/13 04:44:43;;;;;;;;;;;21.40;71.70;;;;;;1998201;28;20153;-69
2022/07/13 04:45:42;;;;;;;;;;;21.30;71.60;;;;;;1998260;28;19961;-70
2022/07/13 04:46:40;;;;;;;;;;;21.40;71.70;;;;;;1998124;28;19968;-70
2022/07/13 04:47:39;;;;;;;;;;;21.40;71.70;;;;;;1998141;28;19909;-69
2022/07/13 04:48:37;;;;;;;;;;;21.40;71.70;;;;;;1998148;28;19905;-70
2022/07/13 04:49:36;;;;;;;;;;;21.40;71.60;;;;;;1998094;28;19975;-69
2022/07/13 04:50:34;;;;;;;;;;;21.40;71.70;;;;;;1998076;28;20281;-69
2022/07/13 04:51:34;;;;;;;;;;;21.40;71.70;;;;;;1998124;28;19996;-70
2022/07/13 04:52:32;;;;;;;;;;;21.40;71.70;;;;;;1998176;28;19910;-69
2022/07/13 04:53:31;;;;;;;;;;;21.40;71.70;;;;;;1998045;28;19905;-69
2022/07/13 04:54:29;;;;;;;;;;;21.40;71.70;;;;;;1998187;28;20375;-71
2022/07/13 04:55:28;;;;;;;;;;;21.40;71.70;;;;;;1997890;28;19964;-69
2022/07/13 04:56:27;;;;;;;;;;;21.40;71.70;;;;;;1997579;28;19906;-70
2022/07/13 04:57:25;;;;;;;;;;;21.40;71.70;;;;;;1997982;28;20354;-69
2022/07/13 04:58:24;;;;;;;;;;;21.40;71.60;;;;;;1998003;28;19905;-68
2022/07/13 04:59:22;;;;;;;;;;;21.40;71.70;;;;;;1998169;28;19977;-68
2022/07/13 05:00:20;;;;;;;;;;;21.40;71.70;;;;;;1997847;28;19906;-68
2022/07/13 05:01:19;;;;;;;;;;;21.40;71.70;;;;;;1998080;28;20129;-68
2022/07/13 05:02:17;;;;;;;;;;;21.40;71.70;;;;;;1997939;28;20340;-69
2022/07/13 05:03:16;;;;;;;;;;;21.40;71.60;;;;;;1998050;28;20016;-68
2022/07/13 05:04:14;;;;;;;;;;;21.40;71.70;;;;;;1997977;28;20005;-69
2022/07/13 05:05:13;;;;;;;;;;;21.40;71.60;;;;;;1998039;28;19957;-69
2022/07/13 05:06:13;;;;;;;;;;;21.40;71.70;;;;;;1997991;28;19910;-68
2022/07/13 05:07:12;;;;;;;;;;;21.40;71.70;;;;;;1998050;28;19917;-68
2022/07/13 05:08:11;;;;;;;;;;;21.40;71.70;;;;;;1997991;28;20315;-68
2022/07/13 05:09:09;;;;;;;;;;;21.40;71.70;;;;;;1998073;28;20359;-70
2022/07/13 05:10:09;;;;;;;;;;;21.40;71.70;;;;;;1997972;28;19905;-69
2022/07/13 05:11:08;;;;;;;;;;;21.40;71.80;;;;;;1997900;28;19906;-69
2022/07/13 05:12:07;;;;;;;;;;;21.40;71.70;;;;;;1997833;28;19910;-69
2022/07/13 05:13:05;;;;;;;;;;;21.40;71.70;;;;;;1997933;28;19906;-69
2022/07/13 05:14:05;;;;;;;;;;;21.40;71.70;;;;;;1997920;28;20003;-70
2022/07/13 05:15:04;;;;;;;;;;;21.40;71.70;;;;;;1997965;28;19945;-69
2022/07/13 05:16:02;;;;;;;;;;;21.40;71.70;;;;;;1997948;28;19905;-68
2022/07/13 05:17:01;;;;;;;;;;;21.40;71.70;;;;;;1997935;28;19906;-68
2022/07/13 05:17:59;;;;;;;;;;;21.40;71.70;;;;;;1998007;28;20075;-68
2022/07/13 05:18:58;;;;;;;;;;;21.40;71.70;;;;;;1997414;28;19953;-68
2022/07/13 05:19:57;;;;;;;;;;;21.40;71.70;;;;;;1997442;28;19928;-68
2022/07/13 05:20:55;;;;;;;;;;;21.40;71.80;;;;;;1997881;28;19918;-68
2022/07/13 05:21:53;;;;;;;;;;;21.40;71.70;;;;;;1998106;28;19905;-68
2022/07/13 05:22:52;;;;;;;;;;;21.40;71.70;;;;;;1997923;28;20350;-69
2022/07/13 05:23:50;;;;;;;;;;;21.40;71.70;;;;;;1997933;28;19909;-69
2022/07/13 05:24:49;;;;;;;;;;;21.40;71.70;;;;;;1997245;28;19913;-68
2022/07/13 05:25:47;;;;;;;;;;;21.40;71.70;;;;;;1997490;28;19906;-68
2022/07/13 05:26:46;;;;;;;;;;;21.40;71.70;;;;;;1997859;28;19913;-68
2022/07/13 05:27:44;;;;;;;;;;;21.40;71.70;;;;;;1997973;28;19906;-68
2022/07/13 05:28:44;;;;;;;;;;;21.40;71.70;;;;;;1997898;28;19906;-68
2022/07/13 05:29:42;;;;;;;;;;;21.40;71.70;;;;;;1997900;28;19905;-69
2022/07/13 05:30:41;;;;;;;;;;;21.40;71.80;;;;;;1997788;28;19905;-69
2022/07/13 05:31:39;;;;;;;;;;;21.40;71.80;;;;;;1997831;28;20100;-68
2022/07/13 05:32:38;;;;;;;;;;;21.40;71.70;;;;;;1997906;28;20388;-68
2022/07/13 05:33:36;;;;;;;;;;;21.40;71.70;;;;;;1997963;28;19906;-68
2022/07/13 05:34:35;;;;;;;;;;;21.40;71.70;;;;;;1997860;28;19906;-68
2022/07/13 05:35:33;;;;;;;;;;;21.40;71.70;;;;;;1997781;28;19913;-68
2022/07/13 05:36:32;;;;;;;;;;;21.40;71.70;;;;;;1996991;28;19906;-68
2022/07/13 05:37:30;;;;;;;;;;;21.40;71.70;;;;;;1997222;28;19933;-68
2022/07/13 05:38:29;;;;;;;;;;;21.40;71.70;;;;;;1997693;28;20397;-71
2022/07/13 05:39:28;;;;;;;;;;;21.40;71.70;;;;;;1997804;28;20420;-68
2022/07/13 05:40:26;;;;;;;;;;;21.40;71.60;;;;;;1997678;28;19968;-68
2022/07/13 05:41:25;;;;;;;;;;;21.40;71.70;;;;;;1997742;28;19964;-68
2022/07/13 05:42:23;;;;;;;;;;;21.40;71.70;;;;;;1997768;28;19905;-68
2022/07/13 05:43:21;;;;;;;;;;;21.40;71.70;;;;;;1997751;28;19906;-68